logo
Rechercher aéroport 
image banner adimage banner adimage banner ad
image banner ad

MZBG - Big Creek Airstrip

Situé à , Belize

ICAO - , IATA - BGK

Données fournies par Airmate  

Information générale

Coordonnées: N16°30'60" W88°28'0"
Élévation : 16 feet MSL.
 
Voir autres Aéroports à Stann Creek District

Données opérationnelles

Special qualification required
Heure actuelle UTC:
Heure actuelle locale:
Météo à : - ( 0 km )
TAF: KATL 300331Z 3004/0106 25003KT P6SM FEW250 FM300600 VRB03KT P6SM SCT250 FM301500 16006KT P6SM BKN200
Voir NOTAMs / SUP AIP / TFR affectant cet aéroport [VIEW]
Fréquences de communication: [VIEW]

Pistes:

Identifiant RWYQFULongueur (ft)Largeur (ft)SurfaceLDA (ft)
11192630UNK
29192630UNK

Coordonnées de l'aéroport

Adresse: Belize

Vue satellite de MZBG